Time;durP1;ratioP1;P1;durP2;ratioP2;P2;SDS_P1;SDS_P2;PMS_P1;PMS_P2;Temp;Humidity;BMP_temperature;BMP_pressure;BME280_temperature;BME280_humidity;BME280_pressure;Samples;Min_cycle;Max_cycle;Signal;HPM_P1;HPM_P2
2021/12/22 00:01:50;;;;;;;24.23;14.40;;;3.10;1.00;;;;;;5059370;28;20412;-57
2021/12/22 00:04:15;;;;;;;26.17;15.83;;;3.20;1.00;;;;;;5063393;28;20260;-57
2021/12/22 00:06:41;;;;;;;21.47;14.17;;;3.20;1.00;;;;;;5057156;28;21049;-56
2021/12/22 00:09:08;;;;;;;26.13;14.43;;;3.30;1.00;;;;;;5045147;28;20193;-57
2021/12/22 00:11:34;;;;;;;26.93;15.93;;;3.40;1.00;;;;;;5057500;28;20180;-57
2021/12/22 00:14:00;;;;;;;29.80;16.97;;;3.50;1.00;;;;;;5062550;28;20492;-56
2021/12/22 00:16:26;;;;;;;22.73;14.67;;;3.50;1.00;;;;;;5060171;28;20470;-56
2021/12/22 00:18:52;;;;;;;23.37;15.40;;;;;;;;;;5054494;28;20219;-56
2021/12/22 00:21:17;;;;;;;26.83;15.00;;;3.40;1.00;;;;;;5054452;28;20204;-56
2021/12/22 00:23:43;;;;;;;30.03;15.83;;;3.50;1.00;;;;;;5052151;28;20471;-55
2021/12/22 00:26:09;;;;;;;29.83;14.10;;;3.40;1.00;;;;;;5058803;28;20221;-57
2021/12/22 00:28:34;;;;;;;28.80;15.30;;;3.40;1.00;;;;;;5057498;28;20223;-56
2021/12/22 00:31:01;;;;;;;26.83;15.33;;;3.40;1.00;;;;;;5060897;28;20819;-57
2021/12/22 00:33:30;;;;;;;21.50;14.57;;;3.40;1.00;;;;;;5055250;28;20188;-58
2021/12/22 00:35:55;;;;;;;22.50;14.43;;;3.50;1.00;;;;;;5055597;28;20446;-56
2021/12/22 00:38:22;;;;;;;23.37;15.23;;;3.50;1.00;;;;;;5053663;28;20514;-56
2021/12/22 00:40:48;;;;;;;25.00;13.87;;;3.50;1.00;;;;;;5058851;28;20201;-59
2021/12/22 00:43:15;;;;;;;27.33;14.53;;;3.50;1.00;;;;;;5060537;28;20493;-57
2021/12/22 00:45:41;;;;;;;21.77;14.20;;;3.40;1.00;;;;;;5062024;28;20530;-56
2021/12/22 00:48:09;;;;;;;25.80;15.07;;;3.40;1.00;;;;;;5064582;28;20443;-57
2021/12/22 00:50:37;;;;;;;24.30;14.50;;;3.50;1.00;;;;;;5063433;28;20915;-55
2021/12/22 00:53:04;;;;;;;26.57;15.10;;;3.50;1.00;;;;;;5055381;28;20450;-55
2021/12/22 00:55:30;;;;;;;28.30;14.80;;;3.50;1.00;;;;;;5063186;28;20638;-58
2021/12/22 00:57:55;;;;;;;23.77;15.00;;;3.50;1.00;;;;;;5053329;28;20556;-58
2021/12/22 01:00:24;;;;;;;28.27;16.33;;;3.50;1.00;;;;;;5053564;28;20182;-57
2021/12/22 01:02:49;;;;;;;23.77;15.50;;;3.50;1.00;;;;;;5049578;28;20185;-57
2021/12/22 01:05:17;;;;;;;24.17;13.50;;;3.50;1.00;;;;;;5054399;28;20805;-57
2021/12/22 01:07:45;;;;;;;25.30;14.07;;;3.40;1.00;;;;;;5050306;28;20193;-56
2021/12/22 01:10:13;;;;;;;25.13;15.60;;;3.30;1.00;;;;;;5055037;28;20456;-58
2021/12/22 01:12:39;;;;;;;27.00;14.50;;;5.10;1.00;;;;;;5056239;28;20451;-57
2021/12/22 01:15:07;;;;;;;28.67;14.33;;;3.50;1.00;;;;;;5055553;28;20424;-58
2021/12/22 01:17:39;;;;;;;25.17;14.07;;;3.60;1.00;;;;;;5054312;28;20468;-56
2021/12/22 01:20:12;;;;;;;24.97;13.37;;;3.60;1.00;;;;;;5055306;28;20979;-57
2021/12/22 01:22:48;;;;;;;20.80;13.77;;;3.50;1.00;;;;;;5055461;28;21014;-56
2021/12/22 01:25:17;;;;;;;25.20;14.20;;;3.40;1.00;;;;;;5054523;28;20439;-56
2021/12/22 01:27:44;;;;;;;26.33;13.20;;;3.40;1.00;;;;;;5051101;28;20544;-56
2021/12/22 01:30:15;;;;;;;21.63;13.13;;;3.60;1.00;;;;;;5053756;28;20503;-57
2021/12/22 01:32:41;;;;;;;28.70;13.80;;;3.60;1.00;;;;;;5061008;28;20446;-57
2021/12/22 01:35:10;;;;;;;18.67;12.77;;;3.60;1.00;;;;;;5058626;28;20472;-56
2021/12/22 01:37:35;;;;;;;30.33;15.53;;;3.60;1.00;;;;;;5048828;28;20467;-56
2021/12/22 01:40:01;;;;;;;20.07;11.70;;;3.50;1.00;;;;;;5057098;28;20448;-56
2021/12/22 01:42:29;;;;;;;20.60;13.50;;;3.50;1.00;;;;;;5059969;28;20178;-57
2021/12/22 01:50:32;;;;;;;20.97;13.00;;;3.40;1.00;;;;;;5053328;28;20484;-57
2021/12/22 01:53:00;;;;;;;24.27;13.73;;;3.40;1.00;;;;;;5042777;28;20487;-56
2021/12/22 01:55:35;;;;;;;23.93;13.90;;;3.50;1.00;;;;;;5058597;28;20439;-57
2021/12/22 01:58:05;;;;;;;20.30;12.87;;;3.50;1.00;;;;;;5054184;28;20475;-57
2021/12/22 02:00:31;;;;;;;21.87;11.20;;;3.50;1.00;;;;;;5056471;28;20470;-55
2021/12/22 02:02:57;;;;;;;23.27;12.77;;;3.50;1.00;;;;;;5064682;28;20870;-57
2021/12/22 02:05:24;;;;;;;23.77;12.10;;;3.60;1.00;;;;;;5058311;28;20956;-56
2021/12/22 02:07:50;;;;;;;20.57;13.47;;;3.50;1.00;;;;;;5059967;28;20463;-56
2021/12/22 02:13:02;;;;;;;20.70;11.97;;;3.60;1.00;;;;;;5055645;28;20759;-56
2021/12/22 02:15:33;;;;;;;25.13;13.03;;;3.60;1.00;;;;;;5043416;28;20446;-57
2021/12/22 02:18:01;;;;;;;20.53;11.80;;;3.70;1.00;;;;;;5052331;28;20552;-56
2021/12/22 02:20:27;;;;;;;17.80;11.90;;;;;;;;;;5061088;28;20509;-57
2021/12/22 02:22:57;;;;;;;21.73;12.13;;;3.60;1.00;;;;;;5056449;28;20947;-56
2021/12/22 02:25:32;;;;;;;20.57;11.87;;;3.70;1.00;;;;;;5061483;28;20467;-57
2021/12/22 02:27:58;;;;;;;21.93;12.07;;;3.70;1.00;;;;;;5058271;28;20539;-56
2021/12/22 02:30:27;;;;;;;19.17;12.00;;;3.70;1.00;;;;;;5044069;28;20494;-56
2021/12/22 02:35:37;;;;;;;23.13;13.27;;;3.80;1.00;;;;;;5059787;28;20971;-56
2021/12/22 02:38:03;;;;;;;22.63;14.27;;;3.70;1.00;;;;;;5060765;28;20482;-57
2021/12/22 02:40:28;;;;;;;22.80;14.10;;;3.80;1.00;;;;;;5061371;28;20796;-57
2021/12/22 02:43:04;;;;;;;24.17;12.77;;;;;;;;;;5063789;28;20604;-58
2021/12/22 02:45:31;;;;;;;23.90;14.00;;;3.80;1.00;;;;;;5062707;28;20196;-58
2021/12/22 02:47:56;;;;;;;19.90;13.10;;;3.70;1.00;;;;;;5055836;28;20439;-56
2021/12/22 02:50:22;;;;;;;21.20;13.63;;;3.80;1.00;;;;;;5054274;28;20461;-56
2021/12/22 02:53:09;;;;;;;26.00;13.77;;;3.70;1.00;;;;;;5058046;28;20191;-57
2021/12/22 02:59:02;;;;;;;21.70;15.50;;;3.80;1.00;;;;;;5059223;28;20845;-58
2021/12/22 03:01:22;;;;;;;25.57;14.90;;;3.70;1.00;;;;;;5053935;28;20445;-57
2021/12/22 03:04:04;;;;;;;25.17;14.73;;;3.70;1.00;;;;;;5063727;28;20424;-56
2021/12/22 03:08:58;;;;;;;22.63;14.33;;;3.60;1.00;;;;;;5057415;28;20984;-56
2021/12/22 03:11:24;;;;;;;27.67;15.63;;;3.70;1.00;;;;;;5064908;28;21077;-56
2021/12/22 03:13:50;;;;;;;27.80;15.57;;;3.70;1.00;;;;;;5060061;28;20329;-56
2021/12/22 03:16:19;;;;;;;27.97;15.63;;;3.70;1.00;;;;;;5067411;28;20216;-57
2021/12/22 03:18:46;;;;;;;22.90;14.30;;;3.70;1.00;;;;;;5055687;28;20220;-59
2021/12/22 03:21:29;;;;;;;28.43;15.80;;;3.70;1.00;;;;;;5050977;28;20449;-57
2021/12/22 03:23:56;;;;;;;27.20;14.80;;;3.60;1.00;;;;;;5051133;28;20445;-55
2021/12/22 03:26:23;;;;;;;26.50;14.63;;;3.60;1.00;;;;;;5051792;28;20838;-56
2021/12/22 03:28:49;;;;;;;21.20;14.53;;;3.60;1.00;;;;;;5059417;28;20450;-57
2021/12/22 03:31:15;;;;;;;26.70;15.23;;;3.60;1.00;;;;;;5062049;28;20566;-57
2021/12/22 03:33:42;;;;;;;20.20;13.53;;;3.60;1.00;;;;;;5059654;28;20514;-56
2021/12/22 03:36:08;;;;;;;19.50;12.63;;;3.50;1.00;;;;;;5058983;28;20434;-58
2021/12/22 03:38:35;;;;;;;24.30;14.03;;;3.60;1.00;;;;;;5065724;28;20467;-57
2021/12/22 03:41:02;;;;;;;22.80;12.90;;;3.50;1.00;;;;;;5053781;28;20176;-58
2021/12/22 03:43:28;;;;;;;24.20;14.50;;;3.40;1.00;;;;;;5056241;28;20450;-58
2021/12/22 03:45:53;;;;;;;23.03;15.00;;;3.40;1.00;;;;;;5062064;28;20943;-58
2021/12/22 03:48:19;;;;;;;23.67;13.27;;;3.40;1.00;;;;;;5058557;28;20205;-57
2021/12/22 03:50:45;;;;;;;23.20;13.27;;;3.30;1.00;;;;;;5054977;28;20274;-57
2021/12/22 03:53:11;;;;;;;20.00;14.07;;;3.30;1.00;;;;;;5048838;28;20802;-56
2021/12/22 03:55:37;;;;;;;24.50;15.50;;;3.30;1.00;;;;;;5044707;28;20193;-56
2021/12/22 03:58:04;;;;;;;22.57;13.60;;;3.20;1.00;;;;;;5040660;28;20531;-56
2021/12/22 04:00:30;;;;;;;23.63;14.37;;;3.20;1.00;;;;;;5052280;28;20976;-57
2021/12/22 04:02:56;;;;;;;24.27;14.07;;;3.10;1.00;;;;;;5060575;28;20796;-56
2021/12/22 04:05:22;;;;;;;23.10;14.13;;;3.10;1.00;;;;;;5058968;28;20799;-58
2021/12/22 04:07:48;;;;;;;23.97;13.57;;;3.00;1.00;;;;;;5058035;28;20444;-58
2021/12/22 04:10:21;;;;;;;24.80;14.00;;;3.00;1.00;;;;;;5057029;28;20189;-57
2021/12/22 04:12:55;;;;;;;21.53;14.47;;;3.00;1.00;;;;;;5056724;28;20491;-56
2021/12/22 04:15:23;;;;;;;23.20;12.90;;;3.00;1.00;;;;;;5053378;28;20955;-56
2021/12/22 04:17:49;;;;;;;20.60;13.03;;;2.90;1.00;;;;;;5058632;28;20527;-56
2021/12/22 04:20:14;;;;;;;22.97;14.17;;;2.90;1.00;;;;;;5054982;28;20815;-56
2021/12/22 04:22:40;;;;;;;19.47;13.07;;;2.90;1.00;;;;;;5044747;28;20870;-55
2021/12/22 04:25:08;;;;;;;25.30;13.30;;;2.80;1.00;;;;;;5056262;28;20269;-56
2021/12/22 04:27:36;;;;;;;22.40;14.23;;;2.80;1.00;;;;;;5059310;28;20463;-58
2021/12/22 04:30:03;;;;;;;23.57;14.67;;;2.70;1.00;;;;;;5052670;28;20492;-56
2021/12/22 04:32:28;;;;;;;24.47;15.27;;;2.70;1.00;;;;;;5056089;28;20523;-58
2021/12/22 04:34:54;;;;;;;25.57;13.70;;;2.50;1.00;;;;;;5045871;28;20571;-57
2021/12/22 04:37:19;;;;;;;25.97;14.30;;;2.50;1.00;;;;;;5039516;28;20535;-55
2021/12/22 04:39:45;;;;;;;20.00;13.43;;;2.50;1.00;;;;;;5045381;28;20862;-56
2021/12/22 04:42:10;;;;;;;25.17;14.23;;;2.40;1.00;;;;;;5044548;28;20189;-57
2021/12/22 04:44:36;;;;;;;22.60;13.30;;;2.40;1.00;;;;;;5045174;28;20259;-57
2021/12/22 04:47:02;;;;;;;28.17;12.97;;;2.30;1.00;;;;;;5048359;28;20269;-57
2021/12/22 04:49:28;;;;;;;26.03;14.23;;;2.40;1.00;;;;;;5052876;28;20223;-57
2021/12/22 04:51:55;;;;;;;24.13;13.80;;;2.30;1.00;;;;;;5053988;28;20521;-56
2021/12/22 04:56:53;;;;;;;26.10;14.30;;;2.30;1.00;;;;;;5060287;28;20450;-57
2021/12/22 04:59:18;;;;;;;27.27;12.87;;;2.30;1.00;;;;;;5063632;28;20545;-56
2021/12/22 05:01:44;;;;;;;23.37;13.40;;;2.20;1.00;;;;;;5066357;28;20539;-59
2021/12/22 05:04:10;;;;;;;26.30;15.23;;;2.10;1.00;;;;;;5050312;28;20191;-59
2021/12/22 05:06:36;;;;;;;24.83;13.67;;;1.90;1.00;;;;;;5050219;28;20191;-57
2021/12/22 05:09:03;;;;;;;26.73;14.33;;;1.90;1.00;;;;;;5048537;28;20213;-59
2021/12/22 05:11:29;;;;;;;25.73;14.27;;;2.00;1.00;;;;;;5048058;28;20189;-59
2021/12/22 05:13:55;;;;;;;25.50;14.40;;;;;;;;;;5049956;28;20466;-59
2021/12/22 05:16:20;;;;;;;23.90;13.43;;;2.20;1.00;;;;;;5053366;28;20188;-56
2021/12/22 05:19:11;;;;;;;31.17;15.77;;;2.10;1.00;;;;;;5053526;28;20496;-57
2021/12/22 05:21:37;;;;;;;22.30;12.80;;;2.10;1.00;;;;;;5061874;28;20534;-57
2021/12/22 05:24:03;;;;;;;20.13;12.27;;;2.10;1.00;;;;;;5059678;28;20453;-56
2021/12/22 05:26:29;;;;;;;23.77;14.17;;;2.00;1.00;;;;;;5063556;28;20505;-57
2021/12/22 05:28:56;;;;;;;28.00;13.40;;;;;;;;;;5061298;28;21002;-57
2021/12/22 05:31:22;;;;;;;27.30;13.77;;;1.90;1.00;;;;;;5053573;28;20216;-57
2021/12/22 05:33:48;;;;;;;19.23;11.60;;;1.90;1.00;;;;;;5051995;28;20454;-56
2021/12/22 05:36:14;;;;;;;26.10;13.00;;;1.80;1.00;;;;;;5055814;28;20443;-56
2021/12/22 05:38:39;;;;;;;24.83;12.73;;;1.80;1.00;;;;;;5051690;28;20266;-57
2021/12/22 05:41:05;;;;;;;22.73;13.40;;;1.70;1.00;;;;;;5063628;28;20192;-57
2021/12/22 05:43:31;;;;;;;24.10;11.83;;;1.70;1.00;;;;;;5054725;28;20200;-57
2021/12/22 05:45:56;;;;;;;19.30;11.27;;;1.70;1.00;;;;;;5062372;28;20769;-57
2021/12/22 05:48:23;;;;;;;21.63;12.90;;;1.70;1.00;;;;;;5055540;28;20187;-55
2021/12/22 05:50:51;;;;;;;18.50;11.17;;;1.70;1.00;;;;;;5059021;28;20176;-57
2021/12/22 05:53:17;;;;;;;18.30;11.87;;;1.70;1.00;;;;;;5049437;28;20510;-57
2021/12/22 05:55:42;;;;;;;23.40;13.07;;;1.60;1.00;;;;;;5062349;28;20490;-56
2021/12/22 05:58:09;;;;;;;22.10;12.23;;;1.60;1.00;;;;;;5060456;28;20238;-57
2021/12/22 06:00:34;;;;;;;22.17;12.73;;;1.60;1.00;;;;;;5063406;28;20184;-56
2021/12/22 06:03:00;;;;;;;18.27;11.60;;;1.60;1.00;;;;;;5063419;28;20438;-56
2021/12/22 06:05:26;;;;;;;19.33;11.37;;;1.60;1.00;;;;;;5067704;28;20436;-58
2021/12/22 06:07:51;;;;;;;27.33;14.00;;;1.60;1.00;;;;;;5064193;28;20193;-56
2021/12/22 06:10:17;;;;;;;22.50;12.70;;;1.60;1.00;;;;;;5062073;28;20175;-58
2021/12/22 06:12:42;;;;;;;20.17;12.10;;;1.60;1.00;;;;;;5064478;28;20242;-57
2021/12/22 06:15:08;;;;;;;24.93;12.47;;;;;;;;;;5068920;28;20666;-57
2021/12/22 06:17:34;;;;;;;24.63;12.60;;;1.50;1.00;;;;;;5066065;28;20195;-57
2021/12/22 06:20:00;;;;;;;22.63;12.77;;;1.50;1.00;;;;;;5062231;28;20529;-57
2021/12/22 06:22:28;;;;;;;23.07;13.40;;;1.50;1.00;;;;;;5061772;28;20447;-57
2021/12/22 06:24:53;;;;;;;26.30;12.97;;;1.50;1.00;;;;;;5070830;28;20438;-56
2021/12/22 06:27:19;;;;;;;22.30;12.47;;;1.50;1.00;;;;;;5065793;28;20437;-57
2021/12/22 06:29:45;;;;;;;24.07;14.63;;;1.50;1.00;;;;;;5060503;28;20194;-56
2021/12/22 06:32:11;;;;;;;26.33;16.13;;;1.50;1.00;;;;;;5069397;28;20292;-57
2021/12/22 06:34:36;;;;;;;25.60;14.03;;;1.50;1.00;;;;;;5065442;28;20527;-57
2021/12/22 06:37:02;;;;;;;27.30;16.87;;;1.50;1.00;;;;;;5059986;28;20264;-56
2021/12/22 06:39:28;;;;;;;22.10;14.10;;;1.50;1.00;;;;;;5064257;28;20294;-56
2021/12/22 06:41:54;;;;;;;26.97;14.77;;;;;;;;;;5061959;28;20580;-56
2021/12/22 06:44:19;;;;;;;28.30;13.77;;;1.40;1.00;;;;;;5064647;28;20184;-56
2021/12/22 06:46:45;;;;;;;27.10;15.37;;;1.40;1.00;;;;;;5068423;28;20955;-56
2021/12/22 06:49:11;;;;;;;28.63;14.90;;;1.40;1.00;;;;;;5071177;28;20235;-56
2021/12/22 06:51:37;;;;;;;28.80;16.40;;;1.30;1.00;;;;;;5071285;28;20189;-55
2021/12/22 06:54:03;;;;;;;24.20;14.17;;;1.40;1.00;;;;;;5058001;28;20185;-56
2021/12/22 06:56:29;;;;;;;25.10;13.30;;;1.40;1.00;;;;;;5069806;28;20466;-57
2021/12/22 06:58:57;;;;;;;29.30;15.20;;;1.40;1.00;;;;;;5065914;28;20973;-56
2021/12/22 07:01:23;;;;;;;30.03;15.40;;;1.30;1.00;;;;;;5064702;28;20180;-56
2021/12/22 07:03:48;;;;;;;26.70;14.60;;;1.30;1.00;;;;;;5064062;28;20437;-55
2021/12/22 07:06:15;;;;;;;26.20;15.20;;;1.30;1.00;;;;;;5069526;28;20940;-56
2021/12/22 07:08:40;;;;;;;24.10;14.07;;;1.30;1.00;;;;;;5068753;28;20435;-56
2021/12/22 07:11:06;;;;;;;25.43;15.47;;;1.40;31.80;;;;;;5061910;28;20681;-56
2021/12/22 07:13:32;;;;;;;30.03;15.00;;;1.50;51.00;;;;;;5066167;28;20180;-57
2021/12/22 07:15:58;;;;;;;24.67;14.87;;;1.50;48.10;;;;;;5066013;28;20661;-56
2021/12/22 07:18:24;;;;;;;33.33;15.60;;;;;;;;;;5060932;28;20960;-56
2021/12/22 07:20:50;;;;;;;27.13;15.83;;;1.60;47.80;;;;;;5064005;28;20442;-55
2021/12/22 07:23:16;;;;;;;28.70;16.13;;;;;;;;;;5064866;28;20514;-56
2021/12/22 07:25:41;;;;;;;28.57;15.17;;;1.60;36.90;;;;;;5059789;28;20195;-59
2021/12/22 07:28:10;;;;;;;22.40;13.33;;;1.50;27.60;;;;;;5060379;28;20458;-57
2021/12/22 07:30:39;;;;;;;25.37;13.40;;;1.40;24.80;;;;;;5060623;28;20678;-55
2021/12/22 07:33:05;;;;;;;24.37;14.43;;;1.40;24.00;;;;;;5064108;28;20448;-55
2021/12/22 07:35:58;;;;;;;26.00;14.27;;;1.40;22.80;;;;;;5057664;28;20443;-56
2021/12/22 07:38:39;;;;;;;20.90;15.23;;;1.40;24.80;;;;;;5059211;28;21158;-56
2021/12/22 07:41:06;;;;;;;27.60;15.47;;;1.40;20.50;;;;;;5058970;28;20431;-55
2021/12/22 07:43:33;;;;;;;28.60;15.13;;;1.40;20.30;;;;;;5054971;28;20469;-55
2021/12/22 07:45:59;;;;;;;31.83;16.23;;;1.40;18.40;;;;;;5057937;28;20446;-55
2021/12/22 07:48:25;;;;;;;24.43;13.87;;;1.40;14.80;;;;;;5065492;28;20443;-56
2021/12/22 07:50:51;;;;;;;25.20;15.50;;;1.40;12.90;;;;;;5060394;28;20418;-56
2021/12/22 07:53:17;;;;;;;25.20;14.23;;;1.40;9.00;;;;;;5063424;28;20447;-56
2021/12/22 07:55:43;;;;;;;23.13;13.53;;;1.40;7.10;;;;;;5060056;28;20529;-55
2021/12/22 07:58:08;;;;;;;22.63;13.97;;;1.40;1.00;;;;;;5059879;28;20557;-55
2021/12/22 08:00:35;;;;;;;26.40;14.33;;;1.40;1.00;;;;;;5058910;28;20448;-56
2021/12/22 08:03:01;;;;;;;20.83;13.50;;;1.40;1.00;;;;;;5058741;28;20184;-55
2021/12/22 08:05:26;;;;;;;24.93;13.40;;;1.40;1.00;;;;;;5059345;28;20494;-54
2021/12/22 08:07:53;;;;;;;27.23;14.33;;;;;;;;;;5067092;28;20188;-57
2021/12/22 08:10:18;;;;;;;25.53;13.97;;;1.50;1.00;;;;;;5061506;28;20188;-57
2021/12/22 08:12:44;;;;;;;24.60;13.70;;;1.50;1.00;;;;;;5057464;28;20535;-57
2021/12/22 08:15:10;;;;;;;24.33;13.30;;;1.60;1.00;;;;;;5068710;28;20191;-59
2021/12/22 08:17:35;;;;;;;26.33;14.40;;;1.60;1.00;;;;;;5063554;28;20194;-58
2021/12/22 08:20:03;;;;;;;21.37;11.73;;;1.50;1.00;;;;;;5062223;28;20189;-55
2021/12/22 08:22:29;;;;;;;24.30;12.07;;;1.50;1.00;;;;;;5058114;28;20177;-56
2021/12/22 08:24:55;;;;;;;23.07;13.10;;;1.60;1.00;;;;;;5062468;28;20830;-56
2021/12/22 08:27:22;;;;;;;16.57;11.00;;;1.70;1.00;;;;;;5069021;28;20184;-57
2021/12/22 08:29:49;;;;;;;21.07;12.40;;;1.70;1.00;;;;;;5061110;28;20475;-56
2021/12/22 08:32:15;;;;;;;23.13;13.17;;;1.70;1.00;;;;;;5053795;28;20454;-57
2021/12/22 08:34:42;;;;;;;17.30;11.87;;;1.70;1.00;;;;;;5066090;28;20442;-56
2021/12/22 08:39:55;;;;;;;16.50;11.07;;;1.60;1.00;;;;;;5063551;28;20478;-56
2021/12/22 08:42:22;;;;;;;17.87;11.80;;;1.80;1.00;;;;;;5062493;28;20484;-58
2021/12/22 08:44:48;;;;;;;18.60;10.00;;;1.80;1.00;;;;;;5057252;28;20439;-56
2021/12/22 08:47:14;;;;;;;19.00;11.03;;;1.90;1.00;;;;;;5057156;28;20439;-57
2021/12/22 08:49:40;;;;;;;16.80;10.83;;;2.00;1.00;;;;;;5070886;28;20439;-55
2021/12/22 08:52:06;;;;;;;15.80;11.07;;;2.10;1.00;;;;;;5056848;28;20447;-57
2021/12/22 08:54:32;;;;;;;22.67;11.10;;;2.10;1.00;;;;;;5056785;28;20273;-57
2021/12/22 08:56:57;;;;;;;18.67;10.90;;;2.10;1.00;;;;;;5064365;28;20576;-56
2021/12/22 08:59:24;;;;;;;17.73;10.07;;;2.00;1.00;;;;;;5054620;28;20221;-58
2021/12/22 09:01:52;;;;;;;14.40;10.27;;;2.10;1.00;;;;;;5063828;28;20180;-57
2021/12/22 09:04:19;;;;;;;17.23;10.70;;;2.10;1.00;;;;;;5059863;28;20463;-56
2021/12/22 09:06:46;;;;;;;14.57;9.40;;;2.10;1.00;;;;;;5062405;28;20500;-56
2021/12/22 09:09:11;;;;;;;16.87;9.53;;;2.10;1.00;;;;;;5058812;28;20489;-57
2021/12/22 09:11:38;;;;;;;15.67;10.40;;;2.10;1.00;;;;;;5056746;28;20440;-55
2021/12/22 09:14:06;;;;;;;15.57;11.03;;;2.10;1.00;;;;;;5052644;28;20238;-56
2021/12/22 09:16:32;;;;;;;13.10;9.87;;;2.20;1.00;;;;;;5062021;28;20439;-58
2021/12/22 09:18:58;;;;;;;14.70;9.80;;;2.30;1.00;;;;;;5056646;28;20558;-57
2021/12/22 09:21:23;;;;;;;11.90;8.50;;;2.30;1.00;;;;;;5063746;28;20520;-56
2021/12/22 09:23:49;;;;;;;14.60;9.67;;;2.30;1.00;;;;;;5065397;28;20188;-56
2021/12/22 09:26:15;;;;;;;17.50;11.07;;;2.40;1.00;;;;;;5061808;28;20199;-56
2021/12/22 09:28:42;;;;;;;16.63;10.20;;;2.40;1.00;;;;;;5054098;28;20180;-58
2021/12/22 09:31:09;;;;;;;14.93;10.20;;;2.50;1.00;;;;;;5061110;28;20474;-57
2021/12/22 09:33:35;;;;;;;15.37;9.90;;;2.50;1.00;;;;;;5062092;28;20793;-56
2021/12/22 09:36:02;;;;;;;17.53;10.90;;;2.50;1.00;;;;;;5062059;28;20434;-57
2021/12/22 09:38:28;;;;;;;13.13;9.90;;;2.60;1.00;;;;;;5061045;28;20206;-55
2021/12/22 09:40:53;;;;;;;16.13;11.10;;;2.60;1.00;;;;;;5062031;28;20442;-57
2021/12/22 09:43:19;;;;;;;15.13;9.93;;;2.60;1.00;;;;;;5056959;28;20642;-58
2021/12/22 09:45:50;;;;;;;15.90;10.70;;;2.70;1.00;;;;;;5059302;28;20627;-55
2021/12/22 09:48:31;;;;;;;13.80;9.70;;;2.80;1.00;;;;;;5064792;28;20332;-58
2021/12/22 09:53:28;;;;;;;17.13;12.70;;;3.00;1.00;;;;;;5058044;28;20548;-57
2021/12/22 09:55:55;;;;;;;15.70;10.13;;;3.00;1.00;;;;;;5060013;28;20443;-56
2021/12/22 09:58:21;;;;;;;13.23;9.47;;;;;;;;;;5056498;28;20465;-56
2021/12/22 10:00:48;;;;;;;14.70;9.40;;;3.20;1.00;;;;;;5059301;28;20439;-57
2021/12/22 10:03:15;;;;;;;13.53;9.60;;;3.10;1.00;;;;;;5055734;28;20520;-56
2021/12/22 10:05:43;;;;;;;14.87;10.10;;;3.10;1.00;;;;;;5055385;28;20436;-58
2021/12/22 10:08:20;;;;;;;15.63;10.70;;;3.10;1.00;;;;;;5065557;28;20489;-57
2021/12/22 10:11:04;;;;;;;16.43;10.63;;;3.20;1.00;;;;;;5062521;28;20569;-57
2021/12/22 10:13:30;;;;;;;17.57;11.67;;;3.30;1.00;;;;;;5054546;28;20489;-57
2021/12/22 10:15:58;;;;;;;18.87;11.87;;;3.30;1.00;;;;;;5057715;28;20441;-58
2021/12/22 10:18:26;;;;;;;15.33;10.00;;;3.40;1.00;;;;;;5062488;28;20460;-57
2021/12/22 10:21:07;;;;;;;18.80;11.23;;;3.40;1.00;;;;;;5056907;28;20933;-62
2021/12/22 10:23:32;;;;;;;15.40;9.03;;;3.50;1.00;;;;;;5063540;28;20429;-59
2021/12/22 10:26:03;;;;;;;13.20;8.70;;;3.60;1.00;;;;;;5057278;28;20932;-57
2021/12/22 10:28:44;;;;;;;12.83;9.40;;;3.60;1.00;;;;;;5059072;28;20196;-58
2021/12/22 10:31:09;;;;;;;21.10;9.90;;;3.60;1.00;;;;;;5060775;28;20480;-59
2021/12/22 10:33:39;;;;;;;14.90;9.90;;;2.70;1.00;;;;;;5061714;28;20445;-58
2021/12/22 10:36:14;;;;;;;18.33;10.43;;;3.60;1.00;;;;;;5058937;28;20561;-57
2021/12/22 10:38:39;;;;;;;17.23;9.67;;;3.70;1.00;;;;;;5067071;28;20542;-57
2021/12/22 10:41:10;;;;;;;19.20;11.17;;;3.70;1.00;;;;;;5059099;28;20530;-57
2021/12/22 10:43:43;;;;;;;15.50;8.83;;;3.80;1.00;;;;;;5063361;28;20231;-55
2021/12/22 10:46:15;;;;;;;14.67;9.93;;;3.90;1.00;;;;;;5065042;28;20437;-58
2021/12/22 10:51:32;;;;;;;11.47;9.00;;;4.10;1.00;;;;;;5064060;28;20449;-58
2021/12/22 10:53:59;;;;;;;13.20;9.47;;;4.10;1.00;;;;;;5059781;28;20438;-58
2021/12/22 10:56:32;;;;;;;12.67;9.20;;;4.10;1.00;;;;;;5055299;28;20526;-55
2021/12/22 10:59:09;;;;;;;13.00;10.03;;;4.20;1.00;;;;;;5066573;28;20462;-56
2021/12/22 11:02:06;;;;;;;16.13;8.07;;;4.20;1.00;;;;;;5064783;28;20919;-56
2021/12/22 11:04:34;;;;;;;13.13;9.17;;;4.40;1.00;;;;;;5054299;28;20773;-58
2021/12/22 11:07:08;;;;;;;12.20;8.70;;;4.50;1.00;;;;;;5067265;28;20539;-56
2021/12/22 11:09:36;;;;;;;13.60;9.20;;;4.50;1.00;;;;;;5059980;28;20449;-57
2021/12/22 11:12:03;;;;;;;17.30;9.30;;;4.60;1.00;;;;;;5061594;28;20996;-57
2021/12/22 11:14:35;;;;;;;11.07;8.20;;;4.70;1.00;;;;;;5063003;28;20428;-57
2021/12/22 11:17:12;;;;;;;16.13;10.07;;;4.70;1.00;;;;;;5073553;28;20441;-56
2021/12/22 11:19:56;;;;;;;14.17;9.03;;;4.80;1.00;;;;;;5067658;28;20533;-57
2021/12/22 11:22:46;;;;;;;16.73;8.57;;;4.80;1.00;;;;;;5064578;28;20487;-58
2021/12/22 11:25:12;;;;;;;13.93;9.40;;;4.80;1.00;;;;;;5057144;28;20988;-57
2021/12/22 11:27:38;;;;;;;15.63;9.70;;;4.80;1.00;;;;;;5060333;28;20443;-57
2021/12/22 11:30:05;;;;;;;12.50;8.90;;;4.90;1.00;;;;;;5066520;28;20883;-57
2021/12/22 11:32:31;;;;;;;15.13;10.67;;;4.80;1.00;;;;;;5064012;28;20431;-59
2021/12/22 11:35:00;;;;;;;11.57;8.80;;;4.80;1.00;;;;;;5063386;28;20584;-57
2021/12/22 11:37:27;;;;;;;16.43;10.67;;;4.80;1.00;;;;;;5059521;28;20448;-59
2021/12/22 11:39:54;;;;;;;11.20;8.73;;;4.90;1.00;;;;;;5065124;28;20470;-57
2021/12/22 11:42:24;;;;;;;15.10;8.63;;;4.90;1.00;;;;;;5066417;28;20441;-58
2021/12/22 11:44:55;;;;;;;12.13;8.83;;;5.00;1.00;;;;;;5058906;28;20963;-55
2021/12/22 11:47:21;;;;;;;14.60;9.80;;;5.00;1.00;;;;;;5065857;28;20440;-58
2021/12/22 11:49:59;;;;;;;15.40;9.93;;;5.00;1.00;;;;;;5061672;28;20461;-58
2021/12/22 11:52:33;;;;;;;14.70;9.40;;;5.10;1.00;;;;;;5058648;28;20438;-59
2021/12/22 11:55:05;;;;;;;12.97;9.97;;;5.10;1.00;;;;;;5057895;28;20480;-58
2021/12/22 11:57:30;;;;;;;14.60;9.50;;;5.10;1.00;;;;;;5059173;28;20427;-58
2021/12/22 11:59:56;;;;;;;11.57;8.80;;;5.20;1.00;;;;;;5070679;28;20433;-58
2021/12/22 12:02:32;;;;;;;14.40;9.33;;;5.10;1.00;;;;;;5065849;28;20180;-58
2021/12/22 12:05:22;;;;;;;12.57;8.43;;;5.10;1.00;;;;;;5063159;28;20251;-58
2021/12/22 12:07:56;;;;;;;12.90;8.67;;;5.10;1.00;;;;;;5065281;28;20944;-58
2021/12/22 12:10:39;;;;;;;11.67;8.80;;;5.20;1.00;;;;;;5062860;28;20436;-56
2021/12/22 12:13:19;;;;;;;10.93;8.80;;;5.20;1.00;;;;;;5058793;28;20464;-57
2021/12/22 12:22:16;;;;;;;13.80;9.40;;;5.30;1.00;;;;;;5061712;28;20963;-57
2021/12/22 12:24:54;;;;;;;13.37;8.60;;;5.30;1.00;;;;;;5051626;28;20445;-59
2021/12/22 12:27:35;;;;;;;10.70;7.97;;;5.30;1.00;;;;;;5067826;28;20422;-57
2021/12/22 12:30:05;;;;;;;9.70;8.70;;;5.30;1.00;;;;;;5070289;28;20787;-57
2021/12/22 12:32:40;;;;;;;10.20;7.93;;;5.30;1.00;;;;;;5062582;28;20494;-58
2021/12/22 12:35:18;;;;;;;11.80;8.53;;;5.40;1.00;;;;;;5056650;28;20523;-56
2021/12/22 12:38:06;;;;;;;13.73;7.73;;;5.40;1.00;;;;;;5061883;28;20940;-58
2021/12/22 12:41:09;;;;;;;9.53;8.03;;;5.30;1.00;;;;;;5056376;28;20405;-57
2021/12/22 12:43:44;;;;;;;12.57;8.53;;;5.20;1.00;;;;;;5063693;28;20401;-56
2021/12/22 12:46:19;;;;;;;11.37;8.33;;;5.20;1.00;;;;;;5057875;28;20782;-57
2021/12/22 12:49:08;;;;;;;10.33;9.13;;;5.20;1.00;;;;;;5056621;28;20826;-55
2021/12/22 12:51:39;;;;;;;13.13;9.03;;;5.10;1.00;;;;;;5053550;28;20914;-56
2021/12/22 12:54:25;;;;;;;12.23;8.67;;;5.10;1.00;;;;;;5058518;28;20445;-56
2021/12/22 12:56:59;;;;;;;13.63;7.93;;;5.20;1.00;;;;;;5060594;28;20441;-56
2021/12/22 12:59:46;;;;;;;11.77;7.83;;;5.20;1.00;;;;;;5057152;28;20489;-57
2021/12/22 13:02:23;;;;;;;13.33;8.13;;;5.30;1.00;;;;;;5060061;28;20932;-57
2021/12/22 13:05:02;;;;;;;9.93;7.87;;;5.30;1.00;;;;;;5061694;28;20476;-58
2021/12/22 13:07:29;;;;;;;10.83;7.63;;;5.30;1.00;;;;;;5065460;28;20431;-58
2021/12/22 13:10:13;;;;;;;12.80;7.57;;;5.30;1.00;;;;;;5055709;28;20828;-56
2021/12/22 13:17:56;;;;;;;9.10;6.80;;;5.30;1.00;;;;;;5058329;28;20531;-57
2021/12/22 13:20:28;;;;;;;8.60;6.80;;;5.30;1.00;;;;;;5037437;28;20457;-57
2021/12/22 13:22:56;;;;;;;10.90;6.90;;;5.30;1.00;;;;;;5057556;28;20939;-56
2021/12/22 13:25:27;;;;;;;9.87;6.50;;;5.30;1.00;;;;;;5059333;28;20442;-57
2021/12/22 13:28:04;;;;;;;10.80;7.40;;;5.30;1.00;;;;;;5059826;28;20489;-56
2021/12/22 13:30:55;;;;;;;8.20;7.27;;;5.20;1.00;;;;;;5058962;28;20550;-56
2021/12/22 13:33:41;;;;;;;10.60;7.50;;;5.10;1.00;;;;;;5054414;28;20446;-55
2021/12/22 13:36:12;;;;;;;10.13;7.50;;;5.20;1.00;;;;;;5049356;28;20439;-55
2021/12/22 13:38:45;;;;;;;11.70;7.20;;;5.10;1.00;;;;;;5064164;28;20465;-57
2021/12/22 13:41:22;;;;;;;12.93;8.23;;;5.10;1.00;;;;;;5061724;28;20497;-57